Portada
METAR-TAF:

METAR-TAF

Aeropuertos :

Danville, Kentucky, Estados Unidos

latitud: 37-34-40N, longitud: 084-46-11W, altitud: 312 m

Observación

El informe se hizo hace 27 minutos, a las 19:50 UTC
Viento 3 kt del suroeste
Temperatura 28°C
Humedad 62%
Presión 1026 hPa
Visibilidad: 16.1 km
Cielo despejado

METAR: KDVK 191950Z AUTO 23003KT 10SM CLR 28/20 A3030 RMK AO2

Hora: 16:17 (20:17 UTC)


TAF: falta

Observaciones y pronósticos meteorológicos de más de 4000 aeropuertos (mensajes METAR y TAF).

Los puntos amarillos y rojos representan las estaciones disponibles.

Ponga el ratón en el punto deseado para ver el nombre de la estación.

Haga clic para ver las observaciones y los pronósticos meteorológicos.

Para cambiar el mapa : haga clic en los botones verdes con una cruz de color negro para hacer un zoom, en el botón verde con un guión para alejar o en las flechas verdes para mapas adyacentes.


METAR-TAF: